sensor_id;sensor_type;location;lat;lon;timestamp;temperature;humidity
7212;DHT22;3647;48.792;9.802;2022-12-07T05:38:12;4.80;99.90
7212;DHT22;3647;48.792;9.802;2022-12-07T05:40:38;2.80;99.90
7212;DHT22;3647;48.792;9.802;2022-12-07T05:43:05;2.90;99.90
7212;DHT22;3647;48.792;9.802;2022-12-07T05:45:32;2.80;99.90
7212;DHT22;3647;48.792;9.802;2022-12-07T05:47:59;2.90;99.90
7212;DHT22;3647;48.792;9.802;2022-12-07T05:50:26;2.90;99.90
7212;DHT22;3647;48.792;9.802;2022-12-07T05:52:53;4.10;99.90
7212;DHT22;3647;48.792;9.802;2022-12-07T05:55:21;2.80;99.90
7212;DHT22;3647;48.792;9.802;2022-12-07T05:57:48;3.60;99.90
7212;DHT22;3647;48.792;9.802;2022-12-07T06:00:28;2.80;99.90
7212;DHT22;3647;48.792;9.802;2022-12-07T06:02:55;2.80;99.90
7212;DHT22;3647;48.792;9.802;2022-12-07T06:05:22;3.30;99.90
7212;DHT22;3647;48.792;9.802;2022-12-07T06:07:49;2.80;99.90
7212;DHT22;3647;48.792;9.802;2022-12-07T06:10:16;2.80;99.90
7212;DHT22;3647;48.792;9.802;2022-12-07T06:12:44;2.80;99.90
7212;DHT22;3647;48.792;9.802;2022-12-07T06:15:11;2.90;99.90
7212;DHT22;3647;48.792;9.802;2022-12-07T06:17:39;2.90;99.90
7212;DHT22;3647;48.792;9.802;2022-12-07T06:20:06;2.90;99.90
7212;DHT22;3647;48.792;9.802;2022-12-07T06:22:33;2.90;99.90
7212;DHT22;3647;48.792;9.802;2022-12-07T06:25:00;2.90;99.90
7212;DHT22;3647;48.792;9.802;2022-12-07T06:27:29;2.90;99.90
7212;DHT22;3647;48.792;9.802;2022-12-07T06:29:58;3.00;99.90
7212;DHT22;3647;48.792;9.802;2022-12-07T06:32:25;2.90;99.90
7212;DHT22;3647;48.792;9.802;2022-12-07T06:34:52;2.90;99.90
7212;DHT22;3647;48.792;9.802;2022-12-07T06:37:18;2.90;99.90
7212;DHT22;3647;48.792;9.802;2022-12-07T06:39:45;2.90;99.90
7212;DHT22;3647;48.792;9.802;2022-12-07T06:42:12;3.30;99.90
7212;DHT22;3647;48.792;9.802;2022-12-07T06:44:39;3.00;99.90
7212;DHT22;3647;48.792;9.802;2022-12-07T06:47:07;2.90;99.90
7212;DHT22;3647;48.792;9.802;2022-12-07T06:49:35;2.80;99.90
7212;DHT22;3647;48.792;9.802;2022-12-07T06:52:01;3.10;99.90
7212;DHT22;3647;48.792;9.802;2022-12-07T06:54:30;2.80;99.90
7212;DHT22;3647;48.792;9.802;2022-12-07T06:56:57;2.70;99.90
7212;DHT22;3647;48.792;9.802;2022-12-07T06:59:23;2.70;99.90
7212;DHT22;3647;48.792;9.802;2022-12-07T07:01:50;2.70;99.90
7212;DHT22;3647;48.792;9.802;2022-12-07T07:04:18;2.70;99.90
7212;DHT22;3647;48.792;9.802;2022-12-07T07:06:45;2.70;99.90
7212;DHT22;3647;48.792;9.802;2022-12-07T07:09:12;2.70;99.90
7212;DHT22;3647;48.792;9.802;2022-12-07T07:11:39;2.90;99.90
7212;DHT22;3647;48.792;9.802;2022-12-07T07:14:06;2.70;99.90
7212;DHT22;3647;48.792;9.802;2022-12-07T07:16:32;2.70;99.90
7212;DHT22;3647;48.792;9.802;2022-12-07T07:18:59;2.70;99.90
7212;DHT22;3647;48.792;9.802;2022-12-07T07:21:27;2.70;99.90
7212;DHT22;3647;48.792;9.802;2022-12-07T07:23:54;2.80;99.90
7212;DHT22;3647;48.792;9.802;2022-12-07T07:26:22;2.80;99.90
7212;DHT22;3647;48.792;9.802;2022-12-07T07:28:49;2.80;99.90
7212;DHT22;3647;48.792;9.802;2022-12-07T07:31:15;2.80;99.90
7212;DHT22;3647;48.792;9.802;2022-12-07T07:33:42;2.80;99.90
7212;DHT22;3647;48.792;9.802;2022-12-07T07:36:09;2.80;99.90
7212;DHT22;3647;48.792;9.802;2022-12-07T07:38:37;2.90;99.90
7212;DHT22;3647;48.792;9.802;2022-12-07T07:41:04;2.90;99.90
7212;DHT22;3647;48.792;9.802;2022-12-07T07:43:33;2.90;99.90
7212;DHT22;3647;48.792;9.802;2022-12-07T07:46:00;2.90;99.90
7212;DHT22;3647;48.792;9.802;2022-12-07T07:48:27;2.90;99.90
7212;DHT22;3647;48.792;9.802;2022-12-07T07:50:54;2.90;99.90
7212;DHT22;3647;48.792;9.802;2022-12-07T07:53:21;2.90;99.90
7212;DHT22;3647;48.792;9.802;2022-12-07T07:55:52;3.00;99.90
7212;DHT22;3647;48.792;9.802;2022-12-07T07:58:20;3.00;99.90
7212;DHT22;3647;48.792;9.802;2022-12-07T08:00:46;3.00;99.90
7212;DHT22;3647;48.792;9.802;2022-12-07T08:03:15;3.00;99.90
7212;DHT22;3647;48.792;9.802;2022-12-07T08:05:42;3.10;99.90
7212;DHT22;3647;48.792;9.802;2022-12-07T08:08:09;3.10;99.90
7212;DHT22;3647;48.792;9.802;2022-12-07T08:10:36;3.10;99.90
7212;DHT22;3647;48.792;9.802;2022-12-07T08:13:04;3.10;99.90
7212;DHT22;3647;48.792;9.802;2022-12-07T08:15:40;3.10;99.90
7212;DHT22;3647;48.792;9.802;2022-12-07T08:18:08;3.20;99.90
7212;DHT22;3647;48.792;9.802;2022-12-07T08:20:36;3.20;99.90
7212;DHT22;3647;48.792;9.802;2022-12-07T08:23:03;3.30;99.90
7212;DHT22;3647;48.792;9.802;2022-12-07T08:25:31;3.30;99.90
7212;DHT22;3647;48.792;9.802;2022-12-07T08:27:58;4.20;99.90
7212;DHT22;3647;48.792;9.802;2022-12-07T08:30:27;3.50;99.90
7212;DHT22;3647;48.792;9.802;2022-12-07T08:32:55;3.30;99.90
7212;DHT22;3647;48.792;9.802;2022-12-07T08:35:23;3.30;99.90
7212;DHT22;3647;48.792;9.802;2022-12-07T08:37:51;3.40;99.90
7212;DHT22;3647;48.792;9.802;2022-12-07T08:40:18;3.40;99.90
7212;DHT22;3647;48.792;9.802;2022-12-07T08:42:51;3.50;99.90
7212;DHT22;3647;48.792;9.802;2022-12-07T08:45:19;3.50;99.90
7212;DHT22;3647;48.792;9.802;2022-12-07T08:47:51;3.60;99.90
7212;DHT22;3647;48.792;9.802;2022-12-07T08:50:19;3.60;99.90
7212;DHT22;3647;48.792;9.802;2022-12-07T08:52:49;3.70;99.90
7212;DHT22;3647;48.792;9.802;2022-12-07T08:55:17;3.70;99.90
7212;DHT22;3647;48.792;9.802;2022-12-07T08:57:45;3.70;99.90
7212;DHT22;3647;48.792;9.802;2022-12-07T09:00:13;3.80;99.90
7212;DHT22;3647;48.792;9.802;2022-12-07T09:02:40;3.70;99.90
7212;DHT22;3647;48.792;9.802;2022-12-07T09:05:08;3.80;99.90
7212;DHT22;3647;48.792;9.802;2022-12-07T09:07:36;3.80;99.90
7212;DHT22;3647;48.792;9.802;2022-12-07T09:10:04;3.80;99.90
7212;DHT22;3647;48.792;9.802;2022-12-07T09:12:31;3.90;99.90
7212;DHT22;3647;48.792;9.802;2022-12-07T09:14:57;3.90;99.90
7212;DHT22;3647;48.792;9.802;2022-12-07T09:17:26;3.90;99.90
7212;DHT22;3647;48.792;9.802;2022-12-07T09:19:52;4.00;99.90
7212;DHT22;3647;48.792;9.802;2022-12-07T09:22:20;4.00;99.90
7212;DHT22;3647;48.792;9.802;2022-12-07T09:24:47;4.00;99.90
7212;DHT22;3647;48.792;9.802;2022-12-07T09:27:14;4.10;99.90
7212;DHT22;3647;48.792;9.802;2022-12-07T09:29:43;4.80;99.90
7212;DHT22;3647;48.792;9.802;2022-12-07T09:32:09;4.70;99.90
7212;DHT22;3647;48.792;9.802;2022-12-07T09:34:36;5.20;99.90
7212;DHT22;3647;48.792;9.802;2022-12-07T09:37:03;4.20;99.90
7212;DHT22;3647;48.792;9.802;2022-12-07T09:39:31;4.30;99.90
7212;DHT22;3647;48.792;9.802;2022-12-07T09:41:59;4.40;99.90
7212;DHT22;3647;48.792;9.802;2022-12-07T09:44:28;4.40;99.90
7212;DHT22;3647;48.792;9.802;2022-12-07T09:46:56;4.50;99.90
7212;DHT22;3647;48.792;9.802;2022-12-07T09:49:24;4.50;99.90
7212;DHT22;3647;48.792;9.802;2022-12-07T09:52:00;4.60;99.90
7212;DHT22;3647;48.792;9.802;2022-12-07T09:54:29;4.60;99.90
7212;DHT22;3647;48.792;9.802;2022-12-07T09:56:58;4.70;99.90
7212;DHT22;3647;48.792;9.802;2022-12-07T09:59:25;4.80;99.90
7212;DHT22;3647;48.792;9.802;2022-12-07T10:01:52;4.80;99.90
7212;DHT22;3647;48.792;9.802;2022-12-07T10:04:21;4.70;99.90
7212;DHT22;3647;48.792;9.802;2022-12-07T10:06:48;4.60;99.90
7212;DHT22;3647;48.792;9.802;2022-12-07T10:09:17;4.70;99.90
7212;DHT22;3647;48.792;9.802;2022-12-07T10:12:00;4.70;99.90
7212;DHT22;3647;48.792;9.802;2022-12-07T10:14:28;4.70;99.90
7212;DHT22;3647;48.792;9.802;2022-12-07T10:16:56;4.70;99.90
7212;DHT22;3647;48.792;9.802;2022-12-07T10:19:25;4.70;99.90
7212;DHT22;3647;48.792;9.802;2022-12-07T10:22:04;5.50;99.90
7212;DHT22;3647;48.792;9.802;2022-12-07T10:24:31;4.80;99.90
7212;DHT22;3647;48.792;9.802;2022-12-07T10:27:00;4.80;99.90
7212;DHT22;3647;48.792;9.802;2022-12-07T10:29:29;5.00;99.90
7212;DHT22;3647;48.792;9.802;2022-12-07T10:31:58;5.20;99.90
7212;DHT22;3647;48.792;9.802;2022-12-07T10:34:27;5.00;99.90
7212;DHT22;3647;48.792;9.802;2022-12-07T10:37:14;5.10;99.90
7212;DHT22;3647;48.792;9.802;2022-12-07T10:39:42;5.00;99.90
7212;DHT22;3647;48.792;9.802;2022-12-07T10:42:18;5.10;99.90
7212;DHT22;3647;48.792;9.802;2022-12-07T10:44:46;5.10;99.90
7212;DHT22;3647;48.792;9.802;2022-12-07T10:47:29;5.10;99.90
7212;DHT22;3647;48.792;9.802;2022-12-07T10:50:23;5.10;99.90
7212;DHT22;3647;48.792;9.802;2022-12-07T10:53:03;5.20;99.90
7212;DHT22;3647;48.792;9.802;2022-12-07T10:55:41;5.20;99.90
7212;DHT22;3647;48.792;9.802;2022-12-07T10:58:28;5.20;99.90
7212;DHT22;3647;48.792;9.802;2022-12-07T11:01:03;5.20;99.90
7212;DHT22;3647;48.792;9.802;2022-12-07T11:03:45;5.20;99.90
7212;DHT22;3647;48.792;9.802;2022-12-07T11:06:25;5.30;99.90
7212;DHT22;3647;48.792;9.802;2022-12-07T11:09:03;3.10;99.90
7212;DHT22;3647;48.792;9.802;2022-12-07T11:11:38;7.10;99.90
7212;DHT22;3647;48.792;9.802;2022-12-07T11:14:21;5.30;99.90
7212;DHT22;3647;48.792;9.802;2022-12-07T11:16:56;6.00;99.90
7212;DHT22;3647;48.792;9.802;2022-12-07T11:19:49;5.50;99.90
7212;DHT22;3647;48.792;9.802;2022-12-07T11:22:23;5.50;99.90
7212;DHT22;3647;48.792;9.802;2022-12-07T11:25:00;5.50;99.90
7212;DHT22;3647;48.792;9.802;2022-12-07T11:27:35;5.50;99.90
7212;DHT22;3647;48.792;9.802;2022-12-07T11:30:13;5.50;99.90
7212;DHT22;3647;48.792;9.802;2022-12-07T11:33:01;5.60;99.90
7212;DHT22;3647;48.792;9.802;2022-12-07T11:35:40;5.50;99.90
7212;DHT22;3647;48.792;9.802;2022-12-07T11:38:16;5.50;99.90
7212;DHT22;3647;48.792;9.802;2022-12-07T11:40:47;5.60;99.90
7212;DHT22;3647;48.792;9.802;2022-12-07T11:43:21;5.60;99.90
7212;DHT22;3647;48.792;9.802;2022-12-07T11:45:56;6.20;99.90
7212;DHT22;3647;48.792;9.802;2022-12-07T11:48:35;5.60;99.90
7212;DHT22;3647;48.792;9.802;2022-12-07T11:51:09;5.60;99.90
7212;DHT22;3647;48.792;9.802;2022-12-07T11:53:41;5.30;99.90
7212;DHT22;3647;48.792;9.802;2022-12-07T11:56:13;5.00;99.90
7212;DHT22;3647;48.792;9.802;2022-12-07T11:58:49;5.10;99.90
7212;DHT22;3647;48.792;9.802;2022-12-07T12:01:39;5.20;99.90
7212;DHT22;3647;48.792;9.802;2022-12-07T12:04:24;6.90;99.90
7212;DHT22;3647;48.792;9.802;2022-12-07T12:06:52;5.10;99.90
7212;DHT22;3647;48.792;9.802;2022-12-07T12:09:21;5.00;99.90
7212;DHT22;3647;48.792;9.802;2022-12-07T12:14:48;5.10;99.90
7212;DHT22;3647;48.792;9.802;2022-12-07T12:17:53;7.70;99.90
7212;DHT22;3647;48.792;9.802;2022-12-07T12:20:27;5.20;99.90
7212;DHT22;3647;48.792;9.802;2022-12-07T12:22:59;5.60;99.90
7212;DHT22;3647;48.792;9.802;2022-12-07T12:25:29;5.40;99.90
7212;DHT22;3647;48.792;9.802;2022-12-07T12:27:58;5.40;99.90
7212;DHT22;3647;48.792;9.802;2022-12-07T12:30:34;5.50;99.90
7212;DHT22;3647;48.792;9.802;2022-12-07T12:33:05;5.60;99.90
7212;DHT22;3647;48.792;9.802;2022-12-07T12:35:34;7.30;99.90
7212;DHT22;3647;48.792;9.802;2022-12-07T12:38:27;5.70;99.90
7212;DHT22;3647;48.792;9.802;2022-12-07T12:40:54;6.70;99.90
7212;DHT22;3647;48.792;9.802;2022-12-07T12:43:45;5.90;99.90
7212;DHT22;3647;48.792;9.802;2022-12-07T12:49:54;5.80;99.90
7212;DHT22;3647;48.792;9.802;2022-12-07T12:59:21;5.50;99.90
7212;DHT22;3647;48.792;9.802;2022-12-07T13:01:49;5.50;99.90
7212;DHT22;3647;48.792;9.802;2022-12-07T13:07:13;5.40;99.90
7212;DHT22;3647;48.792;9.802;2022-12-07T13:10:00;6.60;99.90
7212;DHT22;3647;48.792;9.802;2022-12-07T13:12:27;5.50;99.90
7212;DHT22;3647;48.792;9.802;2022-12-07T13:14:58;5.40;99.90
7212;DHT22;3647;48.792;9.802;2022-12-07T13:17:57;5.40;99.90
7212;DHT22;3647;48.792;9.802;2022-12-07T13:20:44;5.40;99.90
7212;DHT22;3647;48.792;9.802;2022-12-07T13:23:13;5.50;99.90
7212;DHT22;3647;48.792;9.802;2022-12-07T13:25:46;5.40;99.90
7212;DHT22;3647;48.792;9.802;2022-12-07T13:28:16;5.40;99.90
7212;DHT22;3647;48.792;9.802;2022-12-07T13:31:04;5.40;99.90
7212;DHT22;3647;48.792;9.802;2022-12-07T13:33:35;5.40;99.90
7212;DHT22;3647;48.792;9.802;2022-12-07T13:36:03;5.40;99.90
7212;DHT22;3647;48.792;9.802;2022-12-07T13:38:33;5.40;99.90
7212;DHT22;3647;48.792;9.802;2022-12-07T13:41:11;5.30;99.90
7212;DHT22;3647;48.792;9.802;2022-12-07T13:43:48;5.10;99.90
7212;DHT22;3647;48.792;9.802;2022-12-07T13:46:15;5.20;99.90
7212;DHT22;3647;48.792;9.802;2022-12-07T13:48:45;5.20;99.90
7212;DHT22;3647;48.792;9.802;2022-12-07T13:51:21;5.20;99.90
7212;DHT22;3647;48.792;9.802;2022-12-07T13:53:53;5.20;99.90
7212;DHT22;3647;48.792;9.802;2022-12-07T13:56:22;5.20;99.90
7212;DHT22;3647;48.792;9.802;2022-12-07T13:58:52;5.10;99.90
7212;DHT22;3647;48.792;9.802;2022-12-07T14:01:19;5.10;99.90
7212;DHT22;3647;48.792;9.802;2022-12-07T14:03:46;5.00;99.90
7212;DHT22;3647;48.792;9.802;2022-12-07T14:06:16;5.00;99.90
7212;DHT22;3647;48.792;9.802;2022-12-07T14:08:44;5.00;99.90
7212;DHT22;3647;48.792;9.802;2022-12-07T14:11:17;5.00;99.90
7212;DHT22;3647;48.792;9.802;2022-12-07T14:13:51;5.10;99.90
7212;DHT22;3647;48.792;9.802;2022-12-07T14:16:24;6.00;99.90
7212;DHT22;3647;48.792;9.802;2022-12-07T14:18:53;5.90;99.90
7212;DHT22;3647;48.792;9.802;2022-12-07T14:21:22;6.50;99.90
7212;DHT22;3647;48.792;9.802;2022-12-07T14:24:09;5.10;99.90
7212;DHT22;3647;48.792;9.802;2022-12-07T14:26:38;5.00;99.90
7212;DHT22;3647;48.792;9.802;2022-12-07T14:29:29;5.00;99.90
7212;DHT22;3647;48.792;9.802;2022-12-07T14:31:57;5.00;99.90
7212;DHT22;3647;48.792;9.802;2022-12-07T14:34:25;6.20;99.90
7212;DHT22;3647;48.792;9.802;2022-12-07T14:36:52;7.20;99.90
7212;DHT22;3647;48.792;9.802;2022-12-07T14:39:19;4.90;99.90
7212;DHT22;3647;48.792;9.802;2022-12-07T14:41:47;5.00;99.90
7212;DHT22;3647;48.792;9.802;2022-12-07T14:44:17;4.90;99.90
7212;DHT22;3647;48.792;9.802;2022-12-07T14:46:44;4.90;99.90
7212;DHT22;3647;48.792;9.802;2022-12-07T14:49:11;4.80;99.90
7212;DHT22;3647;48.792;9.802;2022-12-07T14:51:39;4.80;99.90
7212;DHT22;3647;48.792;9.802;2022-12-07T14:54:13;6.60;99.90
7212;DHT22;3647;48.792;9.802;2022-12-07T14:56:40;4.80;99.90
7212;DHT22;3647;48.792;9.802;2022-12-07T14:59:10;4.70;99.90
7212;DHT22;3647;48.792;9.802;2022-12-07T15:01:37;4.70;99.90
7212;DHT22;3647;48.792;9.802;2022-12-07T15:04:04;4.60;99.90
7212;DHT22;3647;48.792;9.802;2022-12-07T15:06:31;4.60;99.90
7212;DHT22;3647;48.792;9.802;2022-12-07T15:08:58;4.60;99.90
7212;DHT22;3647;48.792;9.802;2022-12-07T15:11:25;4.60;99.90
7212;DHT22;3647;48.792;9.802;2022-12-07T15:13:52;4.60;99.90
7212;DHT22;3647;48.792;9.802;2022-12-07T15:16:36;4.60;99.90
7212;DHT22;3647;48.792;9.802;2022-12-07T15:19:05;4.50;99.90
7212;DHT22;3647;48.792;9.802;2022-12-07T15:21:32;5.60;99.90
7212;DHT22;3647;48.792;9.802;2022-12-07T15:23:59;4.80;99.90
7212;DHT22;3647;48.792;9.802;2022-12-07T15:26:26;4.60;99.90
7212;DHT22;3647;48.792;9.802;2022-12-07T15:28:53;6.00;99.90
7212;DHT22;3647;48.792;9.802;2022-12-07T15:31:20;4.40;99.90
7212;DHT22;3647;48.792;9.802;2022-12-07T15:33:48;4.30;99.90
7212;DHT22;3647;48.792;9.802;2022-12-07T15:36:20;4.30;99.90
7212;DHT22;3647;48.792;9.802;2022-12-07T15:38:47;5.00;99.90
7212;DHT22;3647;48.792;9.802;2022-12-07T15:41:14;4.20;99.90
7212;DHT22;3647;48.792;9.802;2022-12-07T15:43:41;4.20;99.90
7212;DHT22;3647;48.792;9.802;2022-12-07T15:46:30;4.20;99.90
7212;DHT22;3647;48.792;9.802;2022-12-07T15:48:58;5.90;99.90
7212;DHT22;3647;48.792;9.802;2022-12-07T15:51:25;4.20;99.90
7212;DHT22;3647;48.792;9.802;2022-12-07T15:53:53;4.10;99.90
7212;DHT22;3647;48.792;9.802;2022-12-07T15:56:20;4.10;99.90
7212;DHT22;3647;48.792;9.802;2022-12-07T15:58:47;4.10;99.90
7212;DHT22;3647;48.792;9.802;2022-12-07T16:01:15;5.30;99.90
7212;DHT22;3647;48.792;9.802;2022-12-07T16:03:42;6.20;99.90
7212;DHT22;3647;48.792;9.802;2022-12-07T16:06:11;4.00;99.90
7212;DHT22;3647;48.792;9.802;2022-12-07T16:08:42;4.00;99.90
7212;DHT22;3647;48.792;9.802;2022-12-07T16:11:09;5.70;99.90
7212;DHT22;3647;48.792;9.802;2022-12-07T16:13:36;4.70;99.90
7212;DHT22;3647;48.792;9.802;2022-12-07T16:16:04;3.90;99.90
7212;DHT22;3647;48.792;9.802;2022-12-07T16:18:31;3.90;99.90
7212;DHT22;3647;48.792;9.802;2022-12-07T16:20:57;3.90;99.90
7212;DHT22;3647;48.792;9.802;2022-12-07T16:23:26;3.90;99.90
7212;DHT22;3647;48.792;9.802;2022-12-07T16:25:53;3.90;99.90
7212;DHT22;3647;48.792;9.802;2022-12-07T16:28:20;3.90;99.90
7212;DHT22;3647;48.792;9.802;2022-12-07T16:30:47;3.90;99.90
7212;DHT22;3647;48.792;9.802;2022-12-07T16:33:14;3.90;99.90
7212;DHT22;3647;48.792;9.802;2022-12-07T16:35:41;3.90;99.90
7212;DHT22;3647;48.792;9.802;2022-12-07T16:38:07;3.90;99.90
7212;DHT22;3647;48.792;9.802;2022-12-07T16:40:36;3.90;99.90
7212;DHT22;3647;48.792;9.802;2022-12-07T16:43:02;5.60;99.90
7212;DHT22;3647;48.792;9.802;2022-12-07T16:45:29;4.50;99.90
7212;DHT22;3647;48.792;9.802;2022-12-07T16:47:56;4.80;99.90
7212;DHT22;3647;48.792;9.802;2022-12-07T16:50:23;3.80;99.90
7212;DHT22;3647;48.792;9.802;2022-12-07T16:52:50;3.80;99.90
7212;DHT22;3647;48.792;9.802;2022-12-07T16:55:17;3.80;99.90
7212;DHT22;3647;48.792;9.802;2022-12-07T16:57:45;3.80;99.90
7212;DHT22;3647;48.792;9.802;2022-12-07T17:00:12;5.10;99.90
7212;DHT22;3647;48.792;9.802;2022-12-07T17:02:39;3.80;99.90
7212;DHT22;3647;48.792;9.802;2022-12-07T17:05:07;3.80;99.90
7212;DHT22;3647;48.792;9.802;2022-12-07T17:07:34;3.80;99.90
7212;DHT22;3647;48.792;9.802;2022-12-07T17:10:01;3.80;99.90
7212;DHT22;3647;48.792;9.802;2022-12-07T17:12:27;3.80;99.90
7212;DHT22;3647;48.792;9.802;2022-12-07T17:14:55;3.80;99.90
7212;DHT22;3647;48.792;9.802;2022-12-07T17:17:40;3.80;99.90
7212;DHT22;3647;48.792;9.802;2022-12-07T17:20:07;3.90;99.90
7212;DHT22;3647;48.792;9.802;2022-12-07T17:22:34;4.90;99.90
7212;DHT22;3647;48.792;9.802;2022-12-07T17:25:02;3.80;99.90
7212;DHT22;3647;48.792;9.802;2022-12-07T17:27:29;3.80;99.90
7212;DHT22;3647;48.792;9.802;2022-12-07T17:29:57;3.80;99.90
7212;DHT22;3647;48.792;9.802;2022-12-07T17:32:24;5.00;99.90
7212;DHT22;3647;48.792;9.802;2022-12-07T17:34:51;3.80;99.90
7212;DHT22;3647;48.792;9.802;2022-12-07T17:37:18;3.80;99.90
7212;DHT22;3647;48.792;9.802;2022-12-07T17:39:44;4.70;99.90
7212;DHT22;3647;48.792;9.802;2022-12-07T17:42:11;3.80;99.90
7212;DHT22;3647;48.792;9.802;2022-12-07T17:44:57;3.70;99.90
7212;DHT22;3647;48.792;9.802;2022-12-07T17:47:24;3.70;99.90
7212;DHT22;3647;48.792;9.802;2022-12-07T17:49:50;3.60;99.90
7212;DHT22;3647;48.792;9.802;2022-12-07T17:52:17;3.60;99.90
7212;DHT22;3647;48.792;9.802;2022-12-07T17:55:01;3.50;99.90
7212;DHT22;3647;48.792;9.802;2022-12-07T17:57:28;3.60;99.90
7212;DHT22;3647;48.792;9.802;2022-12-07T17:59:57;3.60;99.90
7212;DHT22;3647;48.792;9.802;2022-12-07T18:02:23;3.50;99.90
7212;DHT22;3647;48.792;9.802;2022-12-07T18:04:50;3.60;99.90
7212;DHT22;3647;48.792;9.802;2022-12-07T18:07:17;3.50;99.90
7212;DHT22;3647;48.792;9.802;2022-12-07T18:09:44;3.50;99.90
7212;DHT22;3647;48.792;9.802;2022-12-07T18:12:11;3.50;99.90
7212;DHT22;3647;48.792;9.802;2022-12-07T18:14:38;3.50;99.90
7212;DHT22;3647;48.792;9.802;2022-12-07T18:17:06;3.50;99.90
7212;DHT22;3647;48.792;9.802;2022-12-07T18:19:33;3.50;99.90
7212;DHT22;3647;48.792;9.802;2022-12-07T18:22:01;3.50;99.90
7212;DHT22;3647;48.792;9.802;2022-12-07T18:24:28;3.60;99.90
7212;DHT22;3647;48.792;9.802;2022-12-07T18:26:55;3.60;99.90
7212;DHT22;3647;48.792;9.802;2022-12-07T18:29:22;3.60;99.90
7212;DHT22;3647;48.792;9.802;2022-12-07T18:31:49;3.60;99.90
7212;DHT22;3647;48.792;9.802;2022-12-07T18:34:18;3.60;99.90
7212;DHT22;3647;48.792;9.802;2022-12-07T18:36:47;3.50;99.90
7212;DHT22;3647;48.792;9.802;2022-12-07T18:39:16;3.50;99.90
7212;DHT22;3647;48.792;9.802;2022-12-07T18:41:43;3.50;99.90
7212;DHT22;3647;48.792;9.802;2022-12-07T18:44:10;3.50;99.90
7212;DHT22;3647;48.792;9.802;2022-12-07T18:46:38;4.10;99.90
7212;DHT22;3647;48.792;9.802;2022-12-07T18:49:07;3.40;99.90
7212;DHT22;3647;48.792;9.802;2022-12-07T18:51:36;3.40;99.90
7212;DHT22;3647;48.792;9.802;2022-12-07T18:54:03;3.40;99.90
7212;DHT22;3647;48.792;9.802;2022-12-07T18:56:30;3.40;99.90
7212;DHT22;3647;48.792;9.802;2022-12-07T18:58:59;5.10;99.90
7212;DHT22;3647;48.792;9.802;2022-12-07T19:01:45;3.30;99.90
7212;DHT22;3647;48.792;9.802;2022-12-07T19:04:13;3.30;99.90
7212;DHT22;3647;48.792;9.802;2022-12-07T19:06:41;4.80;99.90
7212;DHT22;3647;48.792;9.802;2022-12-07T19:09:08;3.30;99.90
7212;DHT22;3647;48.792;9.802;2022-12-07T19:11:36;3.30;99.90
7212;DHT22;3647;48.792;9.802;2022-12-07T19:14:16;4.80;99.90
7212;DHT22;3647;48.792;9.802;2022-12-07T19:16:45;4.00;99.90
7212;DHT22;3647;48.792;9.802;2022-12-07T19:19:14;3.30;99.90
7212;DHT22;3647;48.792;9.802;2022-12-07T19:21:42;3.30;99.90
7212;DHT22;3647;48.792;9.802;2022-12-07T19:24:09;3.30;99.90
7212;DHT22;3647;48.792;9.802;2022-12-07T19:26:36;3.20;99.90
7212;DHT22;3647;48.792;9.802;2022-12-07T19:29:03;4.90;99.90
7212;DHT22;3647;48.792;9.802;2022-12-07T19:31:30;4.70;99.90
7212;DHT22;3647;48.792;9.802;2022-12-07T19:33:57;3.20;99.90
7212;DHT22;3647;48.792;9.802;2022-12-07T19:36:23;3.20;99.90
7212;DHT22;3647;48.792;9.802;2022-12-07T19:38:51;3.20;99.90
7212;DHT22;3647;48.792;9.802;2022-12-07T19:41:18;3.20;99.90
7212;DHT22;3647;48.792;9.802;2022-12-07T19:44:01;3.20;99.90
7212;DHT22;3647;48.792;9.802;2022-12-07T19:46:29;3.20;99.90
7212;DHT22;3647;48.792;9.802;2022-12-07T19:48:56;3.20;99.90
7212;DHT22;3647;48.792;9.802;2022-12-07T19:51:25;3.20;99.90
7212;DHT22;3647;48.792;9.802;2022-12-07T19:53:54;3.20;99.90
7212;DHT22;3647;48.792;9.802;2022-12-07T19:56:21;4.70;99.90
7212;DHT22;3647;48.792;9.802;2022-12-07T19:58:48;3.20;99.90
7212;DHT22;3647;48.792;9.802;2022-12-07T20:01:15;3.10;99.90
7212;DHT22;3647;48.792;9.802;2022-12-07T20:03:42;3.10;99.90
7212;DHT22;3647;48.792;9.802;2022-12-07T20:06:10;3.10;99.90
7212;DHT22;3647;48.792;9.802;2022-12-07T20:08:38;3.10;99.90
7212;DHT22;3647;48.792;9.802;2022-12-07T20:11:07;4.00;99.90
7212;DHT22;3647;48.792;9.802;2022-12-07T20:13:48;3.10;99.90
7212;DHT22;3647;48.792;9.802;2022-12-07T20:16:14;4.80;99.90
7212;DHT22;3647;48.792;9.802;2022-12-07T20:18:41;3.10;99.90
7212;DHT22;3647;48.792;9.802;2022-12-07T20:21:08;3.10;99.90
7212;DHT22;3647;48.792;9.802;2022-12-07T20:23:35;3.00;99.90
7212;DHT22;3647;48.792;9.802;2022-12-07T20:26:04;3.00;99.90
7212;DHT22;3647;48.792;9.802;2022-12-07T20:28:32;3.00;99.90
7212;DHT22;3647;48.792;9.802;2022-12-07T20:31:00;3.20;99.90
7212;DHT22;3647;48.792;9.802;2022-12-07T20:33:27;3.00;99.90
7212;DHT22;3647;48.792;9.802;2022-12-07T20:35:58;3.00;99.90
7212;DHT22;3647;48.792;9.802;2022-12-07T20:38:26;3.00;99.90
7212;DHT22;3647;48.792;9.802;2022-12-07T20:40:58;2.90;99.90
7212;DHT22;3647;48.792;9.802;2022-12-07T20:43:26;2.90;99.90
7212;DHT22;3647;48.792;9.802;2022-12-07T20:45:55;2.90;99.90
7212;DHT22;3647;48.792;9.802;2022-12-07T20:48:22;3.70;99.90
7212;DHT22;3647;48.792;9.802;2022-12-07T20:50:49;2.90;99.90
7212;DHT22;3647;48.792;9.802;2022-12-07T20:53:16;2.90;99.90
7212;DHT22;3647;48.792;9.802;2022-12-07T20:55:43;4.00;99.90
7212;DHT22;3647;48.792;9.802;2022-12-07T20:58:11;3.00;99.90
7212;DHT22;3647;48.792;9.802;2022-12-07T21:00:38;3.00;99.90
7212;DHT22;3647;48.792;9.802;2022-12-07T21:03:06;3.00;99.90
7212;DHT22;3647;48.792;9.802;2022-12-07T21:05:33;2.90;99.90
7212;DHT22;3647;48.792;9.802;2022-12-07T21:08:00;2.90;99.90
7212;DHT22;3647;48.792;9.802;2022-12-07T21:10:28;2.90;99.90
7212;DHT22;3647;48.792;9.802;2022-12-07T21:12:55;2.90;99.90
7212;DHT22;3647;48.792;9.802;2022-12-07T21:15:22;3.00;99.90
7212;DHT22;3647;48.792;9.802;2022-12-07T21:17:49;2.80;99.90
7212;DHT22;3647;48.792;9.802;2022-12-07T21:20:17;2.80;99.90
7212;DHT22;3647;48.792;9.802;2022-12-07T21:22:44;2.80;99.90
7212;DHT22;3647;48.792;9.802;2022-12-07T21:25:12;2.70;99.90
7212;DHT22;3647;48.792;9.802;2022-12-07T21:27:39;2.70;99.90
7212;DHT22;3647;48.792;9.802;2022-12-07T21:30:07;2.70;99.90
7212;DHT22;3647;48.792;9.802;2022-12-07T21:32:33;2.70;99.90
7212;DHT22;3647;48.792;9.802;2022-12-07T21:35:00;2.80;99.90
7212;DHT22;3647;48.792;9.802;2022-12-07T21:37:29;2.60;99.90
7212;DHT22;3647;48.792;9.802;2022-12-07T21:39:55;2.70;99.90
7212;DHT22;3647;48.792;9.802;2022-12-07T21:42:22;2.70;99.90
7212;DHT22;3647;48.792;9.802;2022-12-07T21:44:49;4.30;99.90
7212;DHT22;3647;48.792;9.802;2022-12-07T21:47:16;2.60;99.90
7212;DHT22;3647;48.792;9.802;2022-12-07T21:49:43;2.60;99.90
7212;DHT22;3647;48.792;9.802;2022-12-07T21:52:10;2.60;99.90
7212;DHT22;3647;48.792;9.802;2022-12-07T21:54:38;2.60;99.90
7212;DHT22;3647;48.792;9.802;2022-12-07T21:57:07;2.60;99.90
7212;DHT22;3647;48.792;9.802;2022-12-07T21:59:33;2.60;99.90
7212;DHT22;3647;48.792;9.802;2022-12-07T22:02:01;2.60;99.90
7212;DHT22;3647;48.792;9.802;2022-12-07T22:04:28;4.80;99.90
7212;DHT22;3647;48.792;9.802;2022-12-07T22:06:55;2.60;99.90
7212;DHT22;3647;48.792;9.802;2022-12-07T22:09:23;2.60;99.90
7212;DHT22;3647;48.792;9.802;2022-12-07T22:11:53;2.50;99.90
7212;DHT22;3647;48.792;9.802;2022-12-07T22:14:21;2.50;99.90
7212;DHT22;3647;48.792;9.802;2022-12-07T22:17:05;2.50;99.90
7212;DHT22;3647;48.792;9.802;2022-12-07T22:19:32;2.50;99.90
7212;DHT22;3647;48.792;9.802;2022-12-07T22:21:59;2.50;99.90
7212;DHT22;3647;48.792;9.802;2022-12-07T22:24:26;2.50;99.90
7212;DHT22;3647;48.792;9.802;2022-12-07T22:26:54;4.40;99.90